createdAt,value
2017-08-29T00:02:20.808Z,101138.20
2017-08-29T00:04:49.106Z,101135.53
2017-08-29T00:07:18.017Z,101137.27
2017-08-29T00:09:46.313Z,101136.77
2017-08-29T00:12:14.628Z,101136.00
2017-08-29T00:14:42.932Z,101132.53
2017-08-29T00:17:11.261Z,101133.53
2017-08-29T00:19:39.557Z,101132.03
2017-08-29T00:22:07.878Z,101127.42
2017-08-29T00:24:36.188Z,101128.78
2017-08-29T00:27:04.513Z,101124.72
2017-08-29T00:29:32.812Z,101126.04
2017-08-29T00:32:01.101Z,101126.95
2017-08-29T00:34:29.404Z,101124.70
2017-08-29T00:36:57.708Z,101122.52
2017-08-29T00:39:26.045Z,101119.42
2017-08-29T00:41:54.350Z,101112.51
2017-08-29T00:44:22.667Z,101111.92
2017-08-29T00:46:50.984Z,101107.72
2017-08-29T00:49:19.302Z,101108.59
2017-08-29T00:51:47.612Z,101101.86
2017-08-29T00:54:15.928Z,101096.57
2017-08-29T00:56:44.229Z,101092.75
2017-08-29T00:59:12.563Z,101097.17
2017-08-29T01:01:40.867Z,101096.80
2017-08-29T01:04:09.198Z,101091.47
2017-08-29T01:06:37.498Z,101090.47
2017-08-29T01:09:05.837Z,101087.85
2017-08-29T01:11:34.203Z,101084.64
2017-08-29T01:14:02.503Z,101078.69
2017-08-29T01:16:30.818Z,101074.37
2017-08-29T01:18:59.131Z,101079.25
2017-08-29T01:21:27.455Z,101075.28
2017-08-29T01:23:55.761Z,101076.68
2017-08-29T01:26:24.130Z,101071.63
2017-08-29T01:28:52.427Z,101069.36
2017-08-29T01:31:20.747Z,101072.22
2017-08-29T01:33:49.076Z,101071.53
2017-08-29T01:36:17.479Z,101063.83
2017-08-29T01:38:45.770Z,101059.42
2017-08-29T01:41:14.089Z,101056.50
2017-08-29T01:43:42.463Z,101063.61
2017-08-29T01:46:10.789Z,101062.58
2017-08-29T01:48:39.101Z,101059.22
2017-08-29T01:51:07.409Z,101059.50
2017-08-29T01:53:35.749Z,101053.34
2017-08-29T01:56:04.058Z,101056.66
2017-08-29T01:58:32.470Z,101057.20
2017-08-29T02:01:00.780Z,101050.23
2017-08-29T02:03:29.106Z,101047.92
2017-08-29T02:05:57.409Z,101052.84
2017-08-29T02:08:25.714Z,101051.36
2017-08-29T02:10:54.032Z,101054.48
2017-08-29T02:13:22.339Z,101060.30
2017-08-29T02:15:50.652Z,101062.03
2017-08-29T02:18:18.957Z,101062.60
2017-08-29T02:20:47.277Z,101057.05
2017-08-29T02:23:15.582Z,101066.27
2017-08-29T02:25:43.894Z,101069.25
2017-08-29T02:28:12.193Z,101076.33
2017-08-29T02:30:40.504Z,101073.70
2017-08-29T02:33:08.805Z,101076.22
2017-08-29T02:35:37.099Z,101073.89
2017-08-29T02:38:05.418Z,101073.84
2017-08-29T02:40:33.725Z,101072.79
2017-08-29T02:43:02.040Z,101071.69
2017-08-29T02:45:30.360Z,101076.03
2017-08-29T02:47:58.690Z,101077.13
2017-08-29T02:50:27.100Z,101069.89
2017-08-29T02:52:55.418Z,101071.03
2017-08-29T02:55:23.709Z,101073.28
2017-08-29T02:57:52.022Z,101063.91
2017-08-29T03:00:20.322Z,101067.77
2017-08-29T03:02:48.665Z,101056.05
2017-08-29T03:05:16.961Z,101063.77
2017-08-29T03:07:45.294Z,101066.91
2017-08-29T03:10:13.615Z,101063.48
2017-08-29T03:12:41.909Z,101058.56
2017-08-29T03:15:10.214Z,101067.16
2017-08-29T03:17:38.508Z,101055.37
2017-08-29T03:20:06.817Z,101050.89
2017-08-29T03:22:35.112Z,101052.73
2017-08-29T03:25:03.414Z,101058.19
2017-08-29T03:27:31.708Z,101054.00
2017-08-29T03:30:00.021Z,101050.13
2017-08-29T03:32:28.333Z,101055.51
2017-08-29T03:34:56.625Z,101053.53
2017-08-29T03:37:24.936Z,101053.53
2017-08-29T03:39:53.237Z,101046.98
2017-08-29T03:42:21.545Z,101047.68
2017-08-29T03:44:49.841Z,101040.17
2017-08-29T03:47:18.164Z,101045.44
2017-08-29T03:49:46.462Z,101040.52
2017-08-29T03:52:14.777Z,101040.56
2017-08-29T03:54:43.071Z,101040.45
2017-08-29T03:57:11.393Z,101038.52
2017-08-29T03:59:39.694Z,101041.95
2017-08-29T04:02:08.040Z,101043.50
2017-08-29T04:04:36.340Z,101044.48
2017-08-29T04:07:04.646Z,101052.10
2017-08-29T04:09:32.968Z,101048.08
2017-08-29T04:12:01.273Z,101047.25
2017-08-29T04:14:29.585Z,101047.88
2017-08-29T04:16:57.876Z,101049.66
2017-08-29T04:19:26.194Z,101045.91
2017-08-29T04:21:54.480Z,101041.59
2017-08-29T04:24:22.787Z,101046.58
2017-08-29T04:26:51.101Z,101041.80
2017-08-29T04:29:19.410Z,101047.34
2017-08-29T04:31:47.722Z,101051.22
2017-08-29T04:34:16.026Z,101050.94
2017-08-29T04:36:44.329Z,101049.23
2017-08-29T04:39:12.638Z,101044.41
2017-08-29T04:41:40.940Z,101049.80
2017-08-29T04:44:09.241Z,101047.41
2017-08-29T04:46:37.550Z,101043.31
2017-08-29T04:49:05.843Z,101043.12
2017-08-29T04:51:34.175Z,101036.63
2017-08-29T04:54:02.481Z,101037.48
2017-08-29T04:56:30.785Z,101025.82
2017-08-29T04:58:59.120Z,101025.70
2017-08-29T05:01:27.425Z,101022.61
2017-08-29T05:03:55.736Z,101017.64
2017-08-29T05:06:24.029Z,101015.76
2017-08-29T05:08:52.343Z,101010.73
2017-08-29T05:11:20.669Z,101013.94
2017-08-29T05:13:48.979Z,101012.13
2017-08-29T05:16:17.285Z,101008.97
2017-08-29T05:18:45.620Z,101007.97
2017-08-29T05:21:14.006Z,101005.20
2017-08-29T05:23:42.304Z,101008.47
2017-08-29T05:26:10.609Z,101016.27
2017-08-29T05:28:38.905Z,101014.81
2017-08-29T05:31:07.253Z,101021.77
2017-08-29T05:33:35.549Z,101013.83
2017-08-29T05:36:03.888Z,101018.02
2017-08-29T05:38:32.191Z,101015.64
2017-08-29T05:41:00.511Z,101011.21
2017-08-29T05:43:28.804Z,101011.64
2017-08-29T05:45:57.198Z,101016.95
2017-08-29T05:48:25.496Z,101016.70
2017-08-29T05:50:53.801Z,101013.66
2017-08-29T05:53:22.110Z,101015.06
2017-08-29T05:55:50.412Z,101007.06
2017-08-29T05:58:18.729Z,101009.19
2017-08-29T06:00:47.021Z,101006.39
2017-08-29T06:03:15.330Z,101004.66
2017-08-29T06:05:43.638Z,101000.81
2017-08-29T06:08:11.949Z,100999.19
2017-08-29T06:10:40.276Z,100996.63
2017-08-29T06:13:08.593Z,100993.36
2017-08-29T06:15:36.906Z,100992.23
2017-08-29T06:18:05.240Z,100984.22
2017-08-29T06:20:33.535Z,100983.80
2017-08-29T06:23:01.837Z,100983.72
2017-08-29T06:25:30.145Z,100975.63
2017-08-29T06:27:58.469Z,100968.23
2017-08-29T06:30:26.795Z,100977.61
2017-08-29T06:32:55.102Z,100965.80
2017-08-29T06:35:23.417Z,100968.13
2017-08-29T06:37:51.741Z,100967.30
2017-08-29T06:40:20.052Z,100965.96
2017-08-29T06:42:48.346Z,100969.37
2017-08-29T06:45:16.685Z,100968.27
2017-08-29T06:47:44.994Z,100968.25
2017-08-29T06:50:13.321Z,100961.22
2017-08-29T06:52:41.633Z,100961.44
2017-08-29T06:55:09.977Z,100960.54
2017-08-29T06:57:38.264Z,100955.69
2017-08-29T07:00:06.568Z,100959.23
2017-08-29T07:02:34.909Z,100957.90
2017-08-29T07:05:03.205Z,100956.43
2017-08-29T07:07:31.533Z,100965.96
2017-08-29T07:09:59.834Z,100967.48
2017-08-29T07:12:28.148Z,100964.81
2017-08-29T07:14:56.436Z,100964.17
2017-08-29T07:17:24.745Z,100963.34
2017-08-29T07:19:53.041Z,100968.88
2017-08-29T07:22:21.353Z,100970.31
2017-08-29T07:24:49.649Z,100958.20
2017-08-29T07:27:17.978Z,100959.58
2017-08-29T07:29:46.272Z,100962.08
2017-08-29T07:32:14.572Z,100957.03
2017-08-29T07:34:42.872Z,100959.11
2017-08-29T07:37:11.176Z,100955.16
2017-08-29T07:39:39.492Z,100961.02
2017-08-29T07:42:07.792Z,100959.14
2017-08-29T07:44:36.088Z,100955.72
2017-08-29T07:47:04.394Z,100950.83
2017-08-29T07:49:32.712Z,100956.48
2017-08-29T07:52:01.041Z,100960.62
2017-08-29T07:54:29.364Z,100953.78
2017-08-29T07:56:57.666Z,100953.22
2017-08-29T07:59:26.007Z,100951.05
2017-08-29T08:01:54.299Z,100950.80
2017-08-29T08:04:22.598Z,100950.35
2017-08-29T08:06:50.914Z,100947.45
2017-08-29T08:09:19.214Z,100949.17
2017-08-29T08:11:47.534Z,100949.14
2017-08-29T08:14:15.849Z,100945.27
2017-08-29T08:16:44.156Z,100947.73
2017-08-29T08:19:12.463Z,100936.06
2017-08-29T08:21:40.769Z,100945.73
2017-08-29T08:24:09.097Z,100940.36
2017-08-29T08:26:37.398Z,100942.52
2017-08-29T08:29:05.713Z,100940.88
2017-08-29T08:31:34.021Z,100936.03
2017-08-29T08:34:02.330Z,100937.84
2017-08-29T08:36:30.624Z,100937.09
2017-08-29T08:38:58.945Z,100933.67
2017-08-29T08:41:27.240Z,100929.74
2017-08-29T08:43:55.550Z,100936.18
2017-08-29T08:46:23.863Z,100939.44
2017-08-29T08:48:52.161Z,100942.39
2017-08-29T08:51:20.478Z,100931.17
2017-08-29T08:53:48.777Z,100926.25
2017-08-29T08:56:17.085Z,100924.95
2017-08-29T08:58:45.396Z,100931.02
2017-08-29T09:01:13.723Z,100926.62
2017-08-29T09:03:42.014Z,100924.70
2017-08-29T09:06:10.327Z,100918.57
2017-08-29T09:08:38.647Z,100926.73
2017-08-29T09:11:06.985Z,100919.66
2017-08-29T09:13:35.316Z,100921.89
2017-08-29T09:16:03.613Z,100917.78
2017-08-29T09:18:31.917Z,100929.39
2017-08-29T09:21:00.240Z,100924.87
2017-08-29T09:23:28.573Z,100921.46
2017-08-29T09:25:56.872Z,100919.27
2017-08-29T09:28:25.187Z,100931.44
2017-08-29T09:30:53.562Z,100921.48
2017-08-29T09:33:21.839Z,100928.15
2017-08-29T09:35:50.167Z,100930.55
2017-08-29T09:38:18.476Z,100922.28
2017-08-29T09:40:46.793Z,100916.38
2017-08-29T09:43:15.100Z,100916.04
2017-08-29T09:45:43.467Z,100912.75
2017-08-29T09:48:11.803Z,100904.05
2017-08-29T09:50:40.113Z,100903.41
2017-08-29T09:53:08.407Z,100906.41
2017-08-29T09:55:36.729Z,100902.02
2017-08-29T09:58:05.035Z,100899.27
2017-08-29T10:00:33.370Z,100901.45
2017-08-29T10:03:01.671Z,100895.95
2017-08-29T10:05:29.964Z,100896.24
2017-08-29T10:07:58.285Z,100900.95
2017-08-29T10:10:26.595Z,100903.27
2017-08-29T10:12:54.937Z,100903.78
2017-08-29T10:15:23.245Z,100896.50
2017-08-29T10:17:51.550Z,100896.92
2017-08-29T10:20:19.863Z,100884.60
2017-08-29T10:22:48.168Z,100897.07
2017-08-29T10:25:16.474Z,100890.34
2017-08-29T10:27:44.785Z,100888.92
2017-08-29T10:30:13.129Z,100884.00
2017-08-29T10:32:41.453Z,100881.97
2017-08-29T10:35:09.777Z,100886.38
2017-08-29T10:37:38.069Z,100880.25
2017-08-29T10:40:06.379Z,100873.34
2017-08-29T10:42:34.689Z,100864.91
2017-08-29T10:45:02.981Z,100868.84
2017-08-29T10:47:31.278Z,100855.76
2017-08-29T10:49:59.590Z,100859.19
2017-08-29T10:52:28.725Z,100853.59
2017-08-29T10:54:57.026Z,100850.30
2017-08-29T10:57:25.342Z,100848.62
2017-08-29T10:59:53.637Z,100846.23
2017-08-29T11:02:21.944Z,100842.23
2017-08-29T11:04:50.249Z,100835.91
2017-08-29T11:07:18.553Z,100831.42
2017-08-29T11:09:46.865Z,100832.09
2017-08-29T11:12:15.169Z,100823.28
2017-08-29T11:14:43.477Z,100817.61
2017-08-29T11:17:11.786Z,100814.97
2017-08-29T11:19:40.093Z,100808.03
2017-08-29T11:22:08.401Z,100808.82
2017-08-29T11:24:36.721Z,100799.86
2017-08-29T11:27:05.042Z,100800.63
2017-08-29T11:29:33.402Z,100795.81
2017-08-29T11:32:01.718Z,100795.76
2017-08-29T11:34:30.024Z,100794.97
2017-08-29T11:36:58.343Z,100784.20
2017-08-29T11:39:26.664Z,100783.89
2017-08-29T11:41:54.982Z,100790.19
2017-08-29T11:44:23.355Z,100785.90
2017-08-29T11:46:51.657Z,100781.23
2017-08-29T11:49:19.973Z,100784.44
2017-08-29T11:51:48.276Z,100779.13
2017-08-29T11:54:16.573Z,100777.75
2017-08-29T11:56:44.905Z,100777.05
2017-08-29T11:59:13.200Z,100774.45
2017-08-29T12:01:41.518Z,100765.81
2017-08-29T12:04:09.812Z,100772.02
2017-08-29T12:06:38.120Z,100767.46
2017-08-29T12:09:06.444Z,100765.11
2017-08-29T12:11:34.749Z,100758.86
2017-08-29T12:14:03.157Z,100757.44
2017-08-29T12:16:31.492Z,100759.59
2017-08-29T12:18:59.794Z,100759.20
2017-08-29T12:21:28.109Z,100752.92
2017-08-29T12:23:56.410Z,100755.95
2017-08-29T12:26:24.733Z,100750.24
2017-08-29T12:28:53.134Z,100750.91
2017-08-29T12:31:21.437Z,100746.58
2017-08-29T12:33:49.776Z,100747.45
2017-08-29T12:36:18.080Z,100743.23
2017-08-29T12:38:46.384Z,100736.27
2017-08-29T12:41:14.693Z,100734.66
2017-08-29T12:43:43.009Z,100729.40
2017-08-29T12:46:11.323Z,100723.69
2017-08-29T12:48:39.641Z,100724.20
2017-08-29T12:51:07.946Z,100724.22
2017-08-29T12:53:36.258Z,100718.65
2017-08-29T12:56:04.561Z,100713.40
2017-08-29T12:58:32.885Z,100722.91
2017-08-29T13:01:01.184Z,100717.84
2017-08-29T13:03:29.481Z,100704.91
2017-08-29T13:05:57.780Z,100687.58
2017-08-29T13:08:26.081Z,100697.05
2017-08-29T13:10:54.408Z,100703.18
2017-08-29T13:13:22.714Z,100694.11
2017-08-29T13:15:51.008Z,100696.55
2017-08-29T13:18:19.334Z,100691.37
2017-08-29T13:20:47.638Z,100683.05
2017-08-29T13:23:15.944Z,100682.17
2017-08-29T13:25:44.253Z,100679.85
2017-08-29T13:28:12.557Z,100686.83
2017-08-29T13:30:40.865Z,100681.70
2017-08-29T13:33:09.187Z,100676.08
2017-08-29T13:35:37.493Z,100677.51
2017-08-29T13:38:05.833Z,100667.52
2017-08-29T13:40:34.149Z,100669.12
2017-08-29T13:43:02.453Z,100662.25
2017-08-29T13:45:30.784Z,100661.34
2017-08-29T13:47:59.086Z,100657.78
2017-08-29T13:50:27.385Z,100654.59
2017-08-29T13:52:55.705Z,100634.25
2017-08-29T13:55:24.006Z,100646.95
2017-08-29T13:57:52.306Z,100641.67
2017-08-29T14:00:20.621Z,100639.56
2017-08-29T14:02:48.925Z,100640.73
2017-08-29T14:05:17.224Z,100638.33
2017-08-29T14:07:45.543Z,100638.31
2017-08-29T14:10:13.859Z,100639.72
2017-08-29T14:12:42.157Z,100635.14
2017-08-29T14:15:10.460Z,100627.67
2017-08-29T14:17:38.777Z,100626.75
2017-08-29T14:20:07.074Z,100618.86
2017-08-29T14:22:35.373Z,100622.19
2017-08-29T14:25:03.678Z,100616.73
2017-08-29T14:27:31.974Z,100621.08
2017-08-29T14:30:00.315Z,100621.39
2017-08-29T14:32:28.637Z,100610.97
2017-08-29T14:34:56.938Z,100611.22
2017-08-29T14:37:25.244Z,100615.40
2017-08-29T14:39:53.549Z,100613.14
2017-08-29T14:42:21.857Z,100608.49
2017-08-29T14:44:50.166Z,100603.61
2017-08-29T14:47:36.238Z,100605.83
2017-08-29T14:50:04.545Z,100599.45
2017-08-29T14:52:32.838Z,100601.67
2017-08-29T14:55:01.173Z,100598.52
2017-08-29T14:57:29.477Z,100599.63
2017-08-29T14:59:57.776Z,100588.44
2017-08-29T15:02:26.092Z,100602.02
2017-08-29T15:04:54.401Z,100598.14
2017-08-29T15:07:22.750Z,100597.78
2017-08-29T15:09:51.057Z,100588.13
2017-08-29T15:12:19.379Z,100591.62
2017-08-29T15:14:47.690Z,100587.13
2017-08-29T15:17:15.984Z,100585.48
2017-08-29T15:19:44.322Z,100579.69
2017-08-29T15:22:12.646Z,100579.51
2017-08-29T15:24:40.952Z,100568.94
2017-08-29T15:27:09.260Z,100568.45
2017-08-29T15:29:37.548Z,100569.15
2017-08-29T15:32:05.868Z,100567.91
2017-08-29T15:34:34.177Z,100568.63
2017-08-29T15:37:02.470Z,100567.69
2017-08-29T15:39:30.772Z,100569.39
2017-08-29T15:41:59.073Z,100569.92
2017-08-29T15:44:27.401Z,100565.50
2017-08-29T15:46:55.724Z,100569.41
2017-08-29T15:49:24.362Z,100569.31
2017-08-29T15:51:52.696Z,100565.36
2017-08-29T15:54:21.019Z,100563.83
2017-08-29T15:56:49.446Z,100569.80
2017-08-29T15:59:17.777Z,100567.48
2017-08-29T16:01:46.072Z,100565.15
2017-08-29T16:04:15.218Z,100561.55
2017-08-29T16:06:43.529Z,100554.23
2017-08-29T16:09:11.866Z,100555.70
2017-08-29T16:11:40.164Z,100555.38
2017-08-29T16:14:08.530Z,100543.35
2017-08-29T16:16:36.845Z,100541.73
2017-08-29T16:19:05.155Z,100546.63
2017-08-29T16:21:33.494Z,100551.97
2017-08-29T16:24:01.789Z,100549.33
2017-08-29T16:26:30.095Z,100546.27
2017-08-29T16:28:58.420Z,100545.59
2017-08-29T16:31:26.730Z,100542.39
2017-08-29T16:33:55.076Z,100545.28
2017-08-29T16:36:23.401Z,100543.98
2017-08-29T16:38:51.707Z,100535.77
2017-08-29T16:41:20.016Z,100529.08
2017-08-29T16:43:48.315Z,100530.98
2017-08-29T16:46:16.645Z,100528.17
2017-08-29T16:48:44.946Z,100535.33
2017-08-29T16:51:13.244Z,100536.91
2017-08-29T16:53:41.592Z,100537.95
2017-08-29T16:56:09.900Z,100534.20
2017-08-29T16:58:38.244Z,100529.92
2017-08-29T17:01:06.542Z,100535.04
2017-08-29T17:03:34.843Z,100529.81
2017-08-29T17:06:03.154Z,100526.78
2017-08-29T17:08:31.457Z,100525.30
2017-08-29T17:10:59.773Z,100521.41
2017-08-29T17:13:28.062Z,100526.80
2017-08-29T17:15:56.362Z,100517.69
2017-08-29T17:18:24.674Z,100523.06
2017-08-29T17:20:52.969Z,100515.66
2017-08-29T17:23:21.308Z,100515.77
2017-08-29T17:25:49.596Z,100523.78
2017-08-29T17:28:17.897Z,100521.56
2017-08-29T17:30:46.206Z,100528.80
2017-08-29T17:33:14.509Z,100533.53
2017-08-29T17:35:42.841Z,100534.00
2017-08-29T17:38:11.150Z,100531.43
2017-08-29T17:40:39.453Z,100538.79
2017-08-29T17:43:07.838Z,100540.12
2017-08-29T17:45:36.149Z,100538.41
2017-08-29T17:48:05.019Z,100543.41
2017-08-29T17:50:33.329Z,100543.73
2017-08-29T17:53:01.646Z,100544.37
2017-08-29T17:55:30.754Z,100540.24
2017-08-29T17:57:59.046Z,100543.91
2017-08-29T18:00:27.373Z,100548.39
2017-08-29T18:02:55.668Z,100546.90
2017-08-29T18:05:23.964Z,100544.73
2017-08-29T18:07:52.261Z,100557.52
2017-08-29T18:10:20.574Z,100552.33
2017-08-29T18:12:48.880Z,100557.03
2017-08-29T18:15:17.186Z,100556.95
2017-08-29T18:17:45.489Z,100556.55
2017-08-29T18:20:13.788Z,100555.52
2017-08-29T18:22:42.089Z,100561.88
2017-08-29T18:25:10.418Z,100567.19
2017-08-29T18:27:38.725Z,100565.47
2017-08-29T18:30:07.016Z,100568.23
2017-08-29T18:32:35.338Z,100566.91
2017-08-29T18:35:03.629Z,100568.03
2017-08-29T18:37:31.934Z,100564.16
2017-08-29T18:40:00.233Z,100559.75
2017-08-29T18:42:28.565Z,100556.20
2017-08-29T18:44:56.859Z,100548.19
2017-08-29T18:47:25.237Z,100549.17
2017-08-29T18:49:53.546Z,100545.77
2017-08-29T18:52:21.854Z,100543.63
2017-08-29T18:54:50.159Z,100541.41
2017-08-29T18:57:18.485Z,100539.44
2017-08-29T18:59:46.788Z,100539.55
2017-08-29T19:02:15.093Z,100536.88
2017-08-29T19:04:43.396Z,100538.50
2017-08-29T19:07:11.706Z,100541.47
2017-08-29T19:09:40.019Z,100552.81
2017-08-29T19:12:08.327Z,100551.55
2017-08-29T19:14:36.620Z,100541.91
2017-08-29T19:17:04.928Z,100549.91
2017-08-29T19:19:33.245Z,100546.14
2017-08-29T19:22:01.540Z,100546.66
2017-08-29T19:24:29.842Z,100551.27
2017-08-29T19:26:58.166Z,100554.09
2017-08-29T19:29:26.465Z,100556.89
2017-08-29T19:31:54.774Z,100559.05
2017-08-29T19:34:23.093Z,100563.48
2017-08-29T19:36:51.401Z,100557.94
2017-08-29T19:39:19.713Z,100555.09
2017-08-29T19:41:48.046Z,100543.08
2017-08-29T19:44:16.345Z,100543.20
2017-08-29T19:46:44.677Z,100547.95
2017-08-29T19:49:12.981Z,100545.80
2017-08-29T19:51:41.291Z,100543.36
2017-08-29T19:54:09.606Z,100540.70
2017-08-29T19:56:37.898Z,100539.53
2017-08-29T19:59:06.224Z,100539.48
2017-08-29T20:01:34.522Z,100536.66
2017-08-29T20:04:02.858Z,100539.64
2017-08-29T20:06:31.181Z,100539.50
2017-08-29T20:08:59.497Z,100538.70
2017-08-29T20:11:27.813Z,100540.29
2017-08-29T20:13:56.142Z,100541.48
2017-08-29T20:16:24.432Z,100542.20
2017-08-29T20:18:52.742Z,100543.56
2017-08-29T20:21:21.074Z,100544.56
2017-08-29T20:23:49.370Z,100544.50
2017-08-29T20:26:17.677Z,100548.55
2017-08-29T20:28:45.984Z,100552.12
2017-08-29T20:31:14.291Z,100553.36
2017-08-29T20:33:42.610Z,100551.80
2017-08-29T20:36:10.921Z,100548.17
2017-08-29T20:38:39.221Z,100545.69
2017-08-29T20:41:07.810Z,100551.63
2017-08-29T20:43:36.136Z,100545.67
2017-08-29T20:46:04.430Z,100551.72
2017-08-29T20:48:32.741Z,100542.75
2017-08-29T20:51:01.136Z,100544.49
2017-08-29T20:53:29.462Z,100546.85
2017-08-29T20:55:57.774Z,100549.63
2017-08-29T20:58:26.082Z,100552.76
2017-08-29T21:00:54.393Z,100546.59
2017-08-29T21:03:22.722Z,100541.20
2017-08-29T21:05:51.043Z,100538.61
2017-08-29T21:08:19.341Z,100536.59
2017-08-29T21:10:47.641Z,100530.02
2017-08-29T21:13:15.952Z,100532.57
2017-08-29T21:15:44.260Z,100528.44
2017-08-29T21:18:12.590Z,100530.91
2017-08-29T21:20:40.907Z,100525.42
2017-08-29T21:23:09.202Z,100522.42
2017-08-29T21:25:37.496Z,100522.83
2017-08-29T21:28:05.806Z,100532.69
2017-08-29T21:30:34.113Z,100526.55
2017-08-29T21:33:02.439Z,100530.31
2017-08-29T21:35:30.777Z,100522.84
2017-08-29T21:37:59.076Z,100527.41
2017-08-29T21:40:27.373Z,100526.47
2017-08-29T21:42:55.720Z,100525.29
2017-08-29T21:45:24.040Z,100526.61
2017-08-29T21:47:52.338Z,100525.30
2017-08-29T21:50:20.661Z,100524.28
2017-08-29T21:52:48.961Z,100523.96
2017-08-29T21:55:17.267Z,100529.45
2017-08-29T21:57:45.589Z,100528.70
2017-08-29T22:00:13.880Z,100529.86
2017-08-29T22:02:42.181Z,100533.19
2017-08-29T22:05:10.533Z,100526.27
2017-08-29T22:07:38.874Z,100528.09
2017-08-29T22:10:07.173Z,100532.13
2017-08-29T22:12:35.490Z,100536.67
2017-08-29T22:15:03.805Z,100534.38
2017-08-29T22:17:32.104Z,100528.46
2017-08-29T22:20:00.450Z,100525.05
2017-08-29T22:22:28.746Z,100524.92
2017-08-29T22:24:57.045Z,100530.44
2017-08-29T22:27:25.368Z,100524.39
2017-08-29T22:29:53.677Z,100513.50
2017-08-29T22:32:21.977Z,100512.27
2017-08-29T22:34:50.312Z,100512.09
2017-08-29T22:37:18.613Z,100515.84
2017-08-29T22:39:46.920Z,100519.19
2017-08-29T22:42:15.249Z,100521.15
2017-08-29T22:44:43.552Z,100521.92
2017-08-29T22:47:11.848Z,100516.83
2017-08-29T22:49:40.168Z,100520.67
2017-08-29T22:52:08.468Z,100524.14
2017-08-29T22:54:36.764Z,100525.32
2017-08-29T22:57:05.093Z,100527.47
2017-08-29T22:59:33.393Z,100525.96
2017-08-29T23:02:01.699Z,100519.44
2017-08-29T23:04:30.034Z,100526.38
2017-08-29T23:06:58.388Z,100529.99
2017-08-29T23:09:26.687Z,100532.72
2017-08-29T23:11:55.018Z,100531.78
2017-08-29T23:14:23.343Z,100530.20
2017-08-29T23:16:51.653Z,100538.24
2017-08-29T23:19:20.001Z,100538.14
2017-08-29T23:21:48.300Z,100536.47
2017-08-29T23:24:16.612Z,100536.08
2017-08-29T23:26:44.961Z,100539.39
2017-08-29T23:29:13.274Z,100530.31
2017-08-29T23:31:41.582Z,100533.23
2017-08-29T23:34:09.914Z,100526.80
2017-08-29T23:36:38.213Z,100529.03
2017-08-29T23:39:06.506Z,100523.47
2017-08-29T23:41:34.837Z,100526.92
2017-08-29T23:44:03.154Z,100524.73
2017-08-29T23:46:31.509Z,100517.46
2017-08-29T23:48:59.850Z,100521.30
2017-08-29T23:51:28.171Z,100520.60
2017-08-29T23:53:56.485Z,100514.58
2017-08-29T23:56:24.822Z,100507.55
2017-08-29T23:58:53.212Z,100514.33
